createdAt,value
2023-05-22T00:00:28.543Z,14.72
2023-05-22T00:05:34.836Z,14.70
2023-05-22T00:10:38.292Z,14.64
2023-05-22T00:15:41.538Z,14.52
2023-05-22T00:20:46.581Z,14.45
2023-05-22T00:25:52.099Z,14.38
2023-05-22T00:30:55.150Z,14.28
2023-05-22T00:35:59.509Z,14.23
2023-05-22T00:41:04.095Z,14.16
2023-05-22T00:46:07.716Z,14.14
2023-05-22T00:51:12.248Z,14.10
2023-05-22T00:56:16.276Z,14.10
2023-05-22T01:01:19.849Z,14.04
2023-05-22T01:06:24.409Z,13.99
2023-05-22T01:11:33.212Z,14.06
2023-05-22T01:16:41.881Z,14.06
2023-05-22T01:21:57.634Z,14.06
2023-05-22T01:27:29.283Z,14.02
2023-05-22T01:32:38.675Z,14.05
2023-05-22T01:37:44.036Z,14.06
2023-05-22T01:42:47.185Z,13.97
2023-05-22T01:47:52.181Z,13.95
2023-05-22T01:53:00.116Z,13.91
2023-05-22T01:58:11.527Z,13.80
2023-05-22T02:03:21.019Z,13.81
2023-05-22T02:08:27.816Z,13.82
2023-05-22T02:13:31.508Z,13.78
2023-05-22T02:18:36.032Z,13.83
2023-05-22T02:23:39.110Z,13.84
2023-05-22T02:28:43.642Z,13.80
2023-05-22T02:33:50.419Z,13.82
2023-05-22T02:38:55.517Z,13.84
2023-05-22T02:43:59.414Z,13.87
2023-05-22T02:49:04.373Z,13.88
2023-05-22T02:54:07.376Z,13.82
2023-05-22T02:59:10.438Z,13.74
2023-05-22T03:04:15.891Z,13.80
2023-05-22T03:09:20.299Z,13.75
2023-05-22T03:14:23.353Z,13.74
2023-05-22T03:19:28.096Z,13.74
2023-05-22T03:24:31.571Z,13.70
2023-05-22T03:29:36.441Z,13.76
2023-05-22T03:34:41.503Z,13.75
2023-05-22T03:39:46.602Z,13.67
2023-05-22T03:44:58.393Z,13.73
2023-05-22T03:50:03.783Z,13.70
2023-05-22T03:55:08.142Z,13.65
2023-05-22T04:00:12.675Z,13.63
2023-05-22T04:05:19.767Z,13.67
2023-05-22T04:10:23.713Z,13.60
2023-05-22T04:15:27.076Z,13.64
2023-05-22T04:20:32.296Z,13.63
2023-05-22T04:25:36.519Z,13.73
2023-05-22T04:30:40.514Z,13.81
2023-05-22T04:35:45.515Z,13.92
2023-05-22T04:40:48.764Z,13.90
2023-05-22T04:45:52.056Z,13.94
2023-05-22T04:50:57.602Z,13.98
2023-05-22T04:56:00.917Z,14.03
2023-05-22T05:01:05.054Z,14.14
2023-05-22T05:06:09.657Z,14.22
2023-05-22T05:11:12.837Z,14.25
2023-05-22T05:16:16.148Z,14.34
2023-05-22T05:21:21.440Z,14.49
2023-05-22T05:26:25.041Z,14.47
2023-05-22T05:31:28.998Z,14.59
2023-05-22T05:36:57.376Z,14.82
2023-05-22T05:42:01.925Z,14.84
2023-05-22T05:47:06.425Z,14.89
2023-05-22T05:52:11.066Z,14.91
2023-05-22T05:57:15.290Z,14.97
2023-05-22T06:02:19.282Z,14.99
2023-05-22T06:07:24.961Z,15.01
2023-05-22T06:12:30.352Z,14.99
2023-05-22T06:17:33.488Z,14.99
2023-05-22T06:22:38.922Z,15.08
2023-05-22T06:27:42.623Z,15.15
2023-05-22T06:32:45.897Z,15.23
2023-05-22T06:37:50.601Z,15.36
2023-05-22T06:42:53.842Z,15.69
2023-05-22T06:48:23.430Z,15.99
2023-05-22T06:53:54.838Z,16.13
2023-05-22T06:59:01.218Z,16.09
2023-05-22T07:04:22.805Z,16.40
2023-05-22T07:09:35.746Z,17.00
2023-05-22T07:14:40.166Z,17.37
2023-05-22T07:19:43.513Z,18.01
2023-05-22T07:24:48.268Z,18.72
2023-05-22T07:29:53.533Z,18.69
2023-05-22T07:34:57.540Z,19.07
2023-05-22T07:40:02.930Z,19.53
2023-05-22T07:45:08.132Z,19.63
2023-05-22T07:50:11.541Z,19.29
2023-05-22T07:55:19.530Z,19.56
2023-05-22T08:00:25.396Z,20.13
2023-05-22T08:05:28.643Z,20.17
2023-05-22T08:10:46.436Z,20.12
2023-05-22T08:15:50.601Z,20.05
2023-05-22T08:21:03.822Z,19.91
2023-05-22T08:26:09.910Z,20.12
2023-05-22T08:31:13.142Z,20.06
2023-05-22T08:36:16.412Z,20.70
2023-05-22T08:41:21.822Z,20.78
2023-05-22T08:46:29.411Z,20.88
2023-05-22T08:51:35.783Z,21.29
2023-05-22T08:56:52.911Z,21.18
2023-05-22T09:01:59.741Z,21.37
2023-05-22T09:07:05.808Z,21.47
2023-05-22T09:12:11.743Z,21.77
2023-05-22T09:17:17.186Z,22.02
2023-05-22T09:22:21.816Z,22.55
2023-05-22T09:27:28.768Z,23.01
2023-05-22T09:32:32.183Z,23.41
2023-05-22T09:37:38.382Z,23.95
2023-05-22T09:42:45.795Z,23.98
2023-05-22T09:47:50.629Z,24.31
2023-05-22T09:52:55.383Z,24.30
2023-05-22T09:58:04.219Z,24.37
2023-05-22T10:03:12.193Z,24.94
2023-05-22T10:08:16.310Z,25.17
2023-05-22T10:13:21.606Z,25.15
2023-05-22T10:18:26.005Z,24.71
2023-05-22T10:23:29.695Z,24.71
2023-05-22T10:28:41.850Z,25.15
2023-05-22T10:33:49.853Z,25.33
2023-05-22T10:39:08.111Z,24.87
2023-05-22T10:44:12.696Z,25.65
2023-05-22T10:49:22.509Z,25.85
2023-05-22T10:54:42.192Z,25.98
2023-05-22T10:59:48.741Z,26.14
2023-05-22T11:04:51.854Z,26.51
2023-05-22T11:10:01.579Z,26.28
2023-05-22T11:15:07.936Z,26.47
2023-05-22T11:20:16.122Z,26.13
2023-05-22T11:25:21.466Z,26.76
2023-05-22T11:30:28.506Z,26.96
2023-05-22T11:35:32.233Z,27.44
2023-05-22T11:40:35.353Z,27.26
2023-05-22T11:45:40.943Z,27.45
2023-05-22T11:50:45.040Z,27.08
2023-05-22T11:55:49.766Z,26.40
2023-05-22T12:00:58.341Z,26.37
2023-05-22T12:06:03.860Z,27.08
2023-05-22T12:11:07.664Z,26.72
2023-05-22T12:16:22.892Z,27.39
2023-05-22T12:21:28.171Z,27.68
2023-05-22T12:26:31.682Z,27.84
2023-05-22T12:31:39.236Z,28.00
2023-05-22T12:36:44.155Z,28.38
2023-05-22T12:41:47.380Z,28.77
2023-05-22T12:46:53.510Z,28.99
2023-05-22T12:51:56.661Z,28.76
2023-05-22T12:56:59.714Z,29.10
2023-05-22T13:02:05.535Z,29.25
2023-05-22T13:07:08.813Z,29.04
2023-05-22T13:12:12.106Z,29.01
2023-05-22T13:17:16.473Z,29.07
2023-05-22T13:22:19.690Z,28.68
2023-05-22T13:27:22.942Z,28.54
2023-05-22T13:32:27.333Z,28.43
2023-05-22T13:37:30.724Z,27.84
2023-05-22T13:42:34.070Z,27.50
2023-05-22T13:47:38.615Z,27.15
2023-05-22T13:52:41.733Z,26.81
2023-05-22T13:57:44.682Z,26.50
2023-05-22T14:02:50.166Z,26.39
2023-05-22T14:07:54.196Z,26.44
2023-05-22T14:12:57.404Z,26.36
2023-05-22T14:18:02.064Z,26.12
2023-05-22T14:23:05.446Z,25.95
2023-05-22T14:28:08.521Z,26.13
2023-05-22T14:33:13.007Z,26.00
2023-05-22T14:38:16.148Z,26.32
2023-05-22T14:43:19.130Z,26.48
2023-05-22T14:48:26.380Z,26.28
2023-05-22T14:53:29.853Z,26.54
2023-05-22T14:58:33.175Z,26.55
2023-05-22T15:03:37.592Z,26.36
2023-05-22T15:08:40.624Z,26.55
2023-05-22T15:13:43.690Z,26.73
2023-05-22T15:18:48.074Z,26.29
2023-05-22T15:23:51.339Z,25.76
2023-05-22T15:28:54.373Z,25.65
2023-05-22T15:33:58.957Z,25.23
2023-05-22T15:39:02.890Z,24.98
2023-05-22T15:44:06.005Z,24.97
2023-05-22T15:49:10.542Z,25.16
2023-05-22T15:54:13.647Z,25.55
2023-05-22T15:59:16.705Z,25.49
2023-05-22T16:04:21.200Z,25.47
2023-05-22T16:09:24.348Z,25.37
2023-05-22T16:14:27.407Z,25.17
2023-05-22T16:19:33.560Z,24.99
2023-05-22T16:24:36.926Z,25.05
2023-05-22T16:29:40.010Z,25.14
2023-05-22T16:34:44.515Z,25.13
2023-05-22T16:39:48.004Z,24.84
2023-05-22T16:44:51.524Z,24.71
2023-05-22T16:49:56.389Z,24.70
2023-05-22T16:54:59.461Z,24.68
2023-05-22T17:00:03.715Z,24.33
2023-05-22T17:05:09.191Z,24.19
2023-05-22T17:10:12.956Z,23.99
2023-05-22T17:15:16.380Z,24.06
2023-05-22T17:20:23.265Z,23.86
2023-05-22T17:25:26.652Z,24.19
2023-05-22T17:30:29.744Z,24.44
2023-05-22T17:35:34.378Z,24.21
2023-05-22T17:40:45.990Z,24.10
2023-05-22T17:45:53.852Z,23.95
2023-05-22T17:50:59.503Z,23.38
2023-05-22T17:56:02.625Z,23.20
2023-05-22T18:01:05.871Z,22.89
2023-05-22T18:06:10.531Z,22.81
2023-05-22T18:11:13.694Z,22.47
2023-05-22T18:16:19.706Z,22.39
2023-05-22T18:21:25.810Z,22.21
2023-05-22T18:26:28.935Z,22.10
2023-05-22T18:31:31.998Z,22.04
2023-05-22T18:36:41.696Z,21.82
2023-05-22T18:41:45.151Z,21.71
2023-05-22T18:46:48.362Z,21.38
2023-05-22T18:51:52.827Z,21.20
2023-05-22T18:56:56.481Z,20.88
2023-05-22T19:01:59.600Z,20.63
2023-05-22T19:07:04.512Z,20.53
2023-05-22T19:12:07.985Z,20.26
2023-05-22T19:17:11.228Z,20.01
2023-05-22T19:22:18.590Z,19.54
2023-05-22T19:27:21.742Z,19.35
2023-05-22T19:32:24.764Z,19.22
2023-05-22T19:37:29.180Z,19.09
2023-05-22T19:42:32.319Z,18.87
2023-05-22T19:47:35.433Z,18.51
2023-05-22T19:52:43.027Z,18.46
2023-05-22T19:57:46.549Z,18.22
2023-05-22T20:02:50.076Z,17.96
2023-05-22T20:07:54.561Z,17.79
2023-05-22T20:12:58.139Z,17.55
2023-05-22T20:18:02.708Z,17.40
2023-05-22T20:23:07.369Z,17.31
2023-05-22T20:28:10.605Z,17.23
2023-05-22T20:33:14.421Z,17.08
2023-05-22T20:38:19.111Z,16.96
2023-05-22T20:43:22.161Z,16.64
2023-05-22T20:48:25.619Z,16.39
2023-05-22T20:53:32.790Z,16.10
2023-05-22T20:58:38.576Z,15.79
2023-05-22T21:03:42.355Z,15.70
2023-05-22T21:08:46.748Z,15.75
2023-05-22T21:13:50.203Z,15.72
2023-05-22T21:18:53.258Z,15.72
2023-05-22T21:23:57.835Z,15.63
2023-05-22T21:29:01.118Z,15.40
2023-05-22T21:34:04.194Z,15.36
2023-05-22T21:39:08.909Z,15.29
2023-05-22T21:44:12.014Z,15.27
2023-05-22T21:49:15.239Z,15.27
2023-05-22T21:54:19.806Z,15.20
2023-05-22T21:59:22.914Z,15.12
2023-05-22T22:04:26.120Z,15.13
2023-05-22T22:09:30.491Z,15.08
2023-05-22T22:14:33.490Z,15.08
2023-05-22T22:19:47.200Z,15.00
2023-05-22T22:24:51.725Z,14.83
2023-05-22T22:29:54.922Z,14.90
2023-05-22T22:34:58.253Z,14.85
2023-05-22T22:40:02.812Z,14.79
2023-05-22T22:45:07.183Z,14.75
2023-05-22T22:50:11.002Z,14.71
2023-05-22T22:55:15.670Z,14.64
2023-05-22T23:00:20.283Z,14.60
2023-05-22T23:05:23.548Z,14.57
2023-05-22T23:10:28.010Z,14.43
2023-05-22T23:15:31.126Z,14.59
2023-05-22T23:20:34.281Z,14.65
2023-05-22T23:25:38.882Z,14.66
2023-05-22T23:30:42.215Z,14.71
2023-05-22T23:35:45.192Z,14.68
2023-05-22T23:40:49.701Z,14.69
2023-05-22T23:45:52.769Z,14.66
2023-05-22T23:50:55.836Z,14.67
2023-05-22T23:56:00.329Z,14.46
